Startpagina
METAR-TAF:

METAR-TAF

Vliegvelden :

Düsseldorf, Duitsland

Flughafen Düsseldorf

breedte: 51-18N, lengte: 006-46E, hoogte: 45 m

Actueel weer

Dit bericht is 14 minuten geleden gemaakt, om 10:50 UTC
Wind 6 kt uit variabele richting
Temperatuur 25°C
Vochtigheid 41%
Druk 1021 hPa
Zicht 10 km of meer
geen wolken onder 1500 m en geen cumulonimbus

METAR: EDDL 261050Z VRB06KT CAVOK 25/11 Q1021 NOSIG

Tijdstip: 13:04 (11:04 UTC)

Verwachting

Dit bericht is 6 uur en het 4 minuten geleden gemaakt, om 05:00 UTC
Verwachting geldig van 26 om 06 UTC tot 27 om 12 UTC
Wind 3 kt uit variabele richting
Zicht 10 km of meer
geen wolken onder 1500 m en geen cumulonimbus
Wijzigt naar
van 26 om 06 UTC tot 26 om 09 UTC
Wind 7 kt uit het oostnoordoosten
Wijzigt naar
van 27 om 06 UTC tot 27 om 09 UTC
Wind 12 kt uit het zuidoosten

TAF: EDDL 260500Z 2606/2712 VRB03KT CAVOK BECMG 2606/2609 06007KT BECMG 2706/2709 14012KT

Waarnemingen en weersverwachtingen van meer dan 4000 vliegvelden (METAR en TAF).

De beschikbare stations zijn de gele en rode punten op de kaart.

Ga met uw muis naar het station om de naam te zien.

Klik dan om waarnemingen en weersverwachtingen te zien.

kaart wijzigen: klik op de groene knoppen met een zwart kruis om in te zoomen, op de groene knop met een streepje om uit te zoomen of op de groene pijlen voor aangrenzende kaarten.


METAR-TAF: